sensor_id;sensor_type;location;lat;lon;timestamp;P1;durP1;ratioP1;P2;durP2;ratioP2
29314;SDS011;16320;53.954;9.506;2023-05-10T00:00:48;4.90;;;2.58;;
29314;SDS011;16320;53.954;9.506;2023-05-10T00:03:52;6.32;;;2.65;;
29314;SDS011;16320;53.954;9.506;2023-05-10T00:06:57;3.50;;;3.05;;
29314;SDS011;16320;53.954;9.506;2023-05-10T00:10:02;7.18;;;2.83;;
29314;SDS011;16320;53.954;9.506;2023-05-10T00:13:06;5.03;;;2.53;;
29314;SDS011;16320;53.954;9.506;2023-05-10T00:16:11;3.00;;;2.45;;
29314;SDS011;16320;53.954;9.506;2023-05-10T00:19:19;6.30;;;2.70;;
29314;SDS011;16320;53.954;9.506;2023-05-10T00:22:25;9.70;;;2.80;;
29314;SDS011;16320;53.954;9.506;2023-05-10T00:25:32;3.17;;;2.75;;
29314;SDS011;16320;53.954;9.506;2023-05-10T00:32:38;5.80;;;3.22;;
29314;SDS011;16320;53.954;9.506;2023-05-10T00:36:44;12.18;;;3.03;;
29314;SDS011;16320;53.954;9.506;2023-05-10T00:40:22;3.90;;;2.50;;
29314;SDS011;16320;53.954;9.506;2023-05-10T00:43:51;5.65;;;3.00;;
29314;SDS011;16320;53.954;9.506;2023-05-10T00:47:13;6.28;;;2.80;;
29314;SDS011;16320;53.954;9.506;2023-05-10T00:51:50;6.20;;;3.30;;
29314;SDS011;16320;53.954;9.506;2023-05-10T00:55:55;7.47;;;3.40;;
29314;SDS011;16320;53.954;9.506;2023-05-10T00:59:35;6.53;;;3.08;;
29314;SDS011;16320;53.954;9.506;2023-05-10T01:02:39;7.80;;;3.30;;
29314;SDS011;16320;53.954;9.506;2023-05-10T01:05:49;4.18;;;3.15;;
29314;SDS011;16320;53.954;9.506;2023-05-10T01:08:57;4.43;;;3.05;;
29314;SDS011;16320;53.954;9.506;2023-05-10T01:12:07;7.38;;;3.33;;
29314;SDS011;16320;53.954;9.506;2023-05-10T01:15:15;6.45;;;3.50;;
29314;SDS011;16320;53.954;9.506;2023-05-10T01:18:24;8.75;;;3.65;;
29314;SDS011;16320;53.954;9.506;2023-05-10T01:21:42;5.35;;;3.13;;
29314;SDS011;16320;53.954;9.506;2023-05-10T01:25:31;4.00;;;2.88;;
29314;SDS011;16320;53.954;9.506;2023-05-10T01:40:30;4.55;;;3.40;;
29314;SDS011;16320;53.954;9.506;2023-05-10T01:48:48;7.85;;;3.75;;
29314;SDS011;16320;53.954;9.506;2023-05-10T01:52:47;6.63;;;3.53;;
29314;SDS011;16320;53.954;9.506;2023-05-10T01:56:07;7.10;;;4.18;;
29314;SDS011;16320;53.954;9.506;2023-05-10T01:59:17;9.82;;;3.58;;
29314;SDS011;16320;53.954;9.506;2023-05-10T02:02:25;5.07;;;3.70;;
29314;SDS011;16320;53.954;9.506;2023-05-10T02:05:33;5.05;;;3.70;;
29314;SDS011;16320;53.954;9.506;2023-05-10T02:08:45;7.03;;;4.20;;
29314;SDS011;16320;53.954;9.506;2023-05-10T02:11:53;10.40;;;4.00;;
29314;SDS011;16320;53.954;9.506;2023-05-10T02:14:59;7.88;;;3.40;;
29314;SDS011;16320;53.954;9.506;2023-05-10T02:18:16;7.50;;;4.00;;
29314;SDS011;16320;53.954;9.506;2023-05-10T02:21:26;6.53;;;3.42;;
29314;SDS011;16320;53.954;9.506;2023-05-10T02:24:34;6.47;;;3.92;;
29314;SDS011;16320;53.954;9.506;2023-05-10T02:27:46;8.48;;;3.70;;
29314;SDS011;16320;53.954;9.506;2023-05-10T02:30:53;6.32;;;4.00;;
29314;SDS011;16320;53.954;9.506;2023-05-10T02:33:50;5.30;;;3.60;;
29314;SDS011;16320;53.954;9.506;2023-05-10T02:40:57;10.88;;;4.00;;
29314;SDS011;16320;53.954;9.506;2023-05-10T02:44:10;10.23;;;3.78;;
29314;SDS011;16320;53.954;9.506;2023-05-10T02:47:19;8.80;;;4.22;;
29314;SDS011;16320;53.954;9.506;2023-05-10T02:50:31;5.07;;;3.90;;
29314;SDS011;16320;53.954;9.506;2023-05-10T02:53:56;7.20;;;4.32;;
29314;SDS011;16320;53.954;9.506;2023-05-10T03:00:44;5.13;;;3.90;;
29314;SDS011;16320;53.954;9.506;2023-05-10T03:03:55;5.53;;;3.90;;
29314;SDS011;16320;53.954;9.506;2023-05-10T03:07:15;8.13;;;4.35;;
29314;SDS011;16320;53.954;9.506;2023-05-10T03:10:26;5.35;;;3.90;;
29314;SDS011;16320;53.954;9.506;2023-05-10T03:13:36;8.05;;;3.97;;
29314;SDS011;16320;53.954;9.506;2023-05-10T03:17:15;7.60;;;4.22;;
29314;SDS011;16320;53.954;9.506;2023-05-10T03:21:01;6.00;;;3.65;;
29314;SDS011;16320;53.954;9.506;2023-05-10T03:24:13;5.93;;;3.97;;
29314;SDS011;16320;53.954;9.506;2023-05-10T03:27:25;6.97;;;3.50;;
29314;SDS011;16320;53.954;9.506;2023-05-10T03:31:03;5.55;;;3.97;;
29314;SDS011;16320;53.954;9.506;2023-05-10T03:34:17;10.63;;;4.13;;
29314;SDS011;16320;53.954;9.506;2023-05-10T03:37:32;6.97;;;3.80;;
29314;SDS011;16320;53.954;9.506;2023-05-10T03:40:38;6.43;;;3.75;;
29314;SDS011;16320;53.954;9.506;2023-05-10T03:43:44;6.28;;;3.80;;
29314;SDS011;16320;53.954;9.506;2023-05-10T03:46:50;6.50;;;4.03;;
29314;SDS011;16320;53.954;9.506;2023-05-10T03:49:57;8.15;;;4.35;;
29314;SDS011;16320;53.954;9.506;2023-05-10T03:53:03;9.05;;;4.63;;
29314;SDS011;16320;53.954;9.506;2023-05-10T03:56:10;6.10;;;3.60;;
29314;SDS011;16320;53.954;9.506;2023-05-10T03:59:16;9.93;;;4.53;;
29314;SDS011;16320;53.954;9.506;2023-05-10T04:02:22;4.60;;;4.10;;
29314;SDS011;16320;53.954;9.506;2023-05-10T04:05:28;5.60;;;4.28;;
29314;SDS011;16320;53.954;9.506;2023-05-10T04:08:34;9.00;;;3.92;;
29314;SDS011;16320;53.954;9.506;2023-05-10T04:11:40;8.30;;;4.75;;
29314;SDS011;16320;53.954;9.506;2023-05-10T04:14:48;7.00;;;4.68;;
29314;SDS011;16320;53.954;9.506;2023-05-10T04:18:12;8.68;;;4.85;;
29314;SDS011;16320;53.954;9.506;2023-05-10T04:21:19;6.90;;;4.30;;
29314;SDS011;16320;53.954;9.506;2023-05-10T04:24:24;10.25;;;4.32;;
29314;SDS011;16320;53.954;9.506;2023-05-10T04:27:31;8.27;;;4.35;;
29314;SDS011;16320;53.954;9.506;2023-05-10T04:30:38;8.35;;;4.53;;
29314;SDS011;16320;53.954;9.506;2023-05-10T04:33:44;5.68;;;4.55;;
29314;SDS011;16320;53.954;9.506;2023-05-10T04:36:53;7.45;;;4.53;;
29314;SDS011;16320;53.954;9.506;2023-05-10T04:40:29;9.45;;;4.68;;
29314;SDS011;16320;53.954;9.506;2023-05-10T04:43:39;9.13;;;4.35;;
29314;SDS011;16320;53.954;9.506;2023-05-10T04:46:49;5.60;;;4.05;;
29314;SDS011;16320;53.954;9.506;2023-05-10T04:49:56;6.35;;;4.25;;
29314;SDS011;16320;53.954;9.506;2023-05-10T04:52:53;7.70;;;4.75;;
29314;SDS011;16320;53.954;9.506;2023-05-10T04:55:57;8.18;;;4.32;;
29314;SDS011;16320;53.954;9.506;2023-05-10T04:59:02;7.88;;;4.95;;
29314;SDS011;16320;53.954;9.506;2023-05-10T05:02:06;10.02;;;3.95;;
29314;SDS011;16320;53.954;9.506;2023-05-10T05:05:11;7.80;;;3.90;;
29314;SDS011;16320;53.954;9.506;2023-05-10T05:08:16;4.90;;;4.10;;
29314;SDS011;16320;53.954;9.506;2023-05-10T05:11:21;12.13;;;5.28;;
29314;SDS011;16320;53.954;9.506;2023-05-10T05:14:26;5.55;;;4.30;;
29314;SDS011;16320;53.954;9.506;2023-05-10T05:21:26;9.40;;;4.65;;
29314;SDS011;16320;53.954;9.506;2023-05-10T05:25:22;8.18;;;4.38;;
29314;SDS011;16320;53.954;9.506;2023-05-10T05:33:48;7.50;;;4.43;;
29314;SDS011;16320;53.954;9.506;2023-05-10T05:37:48;7.70;;;4.75;;
29314;SDS011;16320;53.954;9.506;2023-05-10T05:41:10;6.38;;;4.57;;
29314;SDS011;16320;53.954;9.506;2023-05-10T05:44:20;13.20;;;4.55;;
29314;SDS011;16320;53.954;9.506;2023-05-10T05:47:41;5.10;;;4.43;;
29314;SDS011;16320;53.954;9.506;2023-05-10T05:51:37;9.68;;;5.50;;
29314;SDS011;16320;53.954;9.506;2023-05-10T05:54:56;10.45;;;4.40;;
29314;SDS011;16320;53.954;9.506;2023-05-10T05:58:32;7.05;;;5.03;;
29314;SDS011;16320;53.954;9.506;2023-05-10T06:02:50;6.32;;;4.63;;
29314;SDS011;16320;53.954;9.506;2023-05-10T06:06:12;5.72;;;4.50;;
29314;SDS011;16320;53.954;9.506;2023-05-10T06:09:37;6.35;;;4.60;;
29314;SDS011;16320;53.954;9.506;2023-05-10T06:13:02;5.10;;;4.47;;
29314;SDS011;16320;53.954;9.506;2023-05-10T06:17:31;8.13;;;5.03;;
29314;SDS011;16320;53.954;9.506;2023-05-10T06:20:43;9.93;;;4.95;;
29314;SDS011;16320;53.954;9.506;2023-05-10T06:23:59;6.88;;;4.60;;
29314;SDS011;16320;53.954;9.506;2023-05-10T06:27:18;10.18;;;4.75;;
29314;SDS011;16320;53.954;9.506;2023-05-10T06:34:32;6.93;;;4.53;;
29314;SDS011;16320;53.954;9.506;2023-05-10T06:38:26;9.15;;;5.05;;
29314;SDS011;16320;53.954;9.506;2023-05-10T06:41:59;7.05;;;4.88;;
29314;SDS011;16320;53.954;9.506;2023-05-10T06:45:10;7.72;;;4.47;;
29314;SDS011;16320;53.954;9.506;2023-05-10T06:48:19;5.63;;;4.70;;
29314;SDS011;16320;53.954;9.506;2023-05-10T06:51:25;8.45;;;4.78;;
29314;SDS011;16320;53.954;9.506;2023-05-10T06:54:32;12.15;;;4.53;;
29314;SDS011;16320;53.954;9.506;2023-05-10T06:57:38;9.77;;;4.18;;
29314;SDS011;16320;53.954;9.506;2023-05-10T07:00:45;7.43;;;4.38;;
29314;SDS011;16320;53.954;9.506;2023-05-10T07:03:53;6.00;;;4.85;;
29314;SDS011;16320;53.954;9.506;2023-05-10T07:07:00;8.07;;;4.65;;
29314;SDS011;16320;53.954;9.506;2023-05-10T07:10:07;7.60;;;4.28;;
29314;SDS011;16320;53.954;9.506;2023-05-10T07:13:13;7.40;;;4.72;;
29314;SDS011;16320;53.954;9.506;2023-05-10T07:16:20;8.43;;;4.97;;
29314;SDS011;16320;53.954;9.506;2023-05-10T07:19:27;6.43;;;4.75;;
29314;SDS011;16320;53.954;9.506;2023-05-10T07:22:33;5.93;;;4.18;;
29314;SDS011;16320;53.954;9.506;2023-05-10T07:25:40;8.70;;;4.60;;
29314;SDS011;16320;53.954;9.506;2023-05-10T07:28:45;12.35;;;5.05;;
29314;SDS011;16320;53.954;9.506;2023-05-10T07:31:52;6.38;;;4.47;;
29314;SDS011;16320;53.954;9.506;2023-05-10T07:34:46;6.82;;;4.47;;
29314;SDS011;16320;53.954;9.506;2023-05-10T07:37:59;10.23;;;5.25;;
29314;SDS011;16320;53.954;9.506;2023-05-10T07:41:09;10.63;;;4.85;;
29314;SDS011;16320;53.954;9.506;2023-05-10T07:44:15;5.72;;;4.93;;
29314;SDS011;16320;53.954;9.506;2023-05-10T07:47:22;6.47;;;5.35;;
29314;SDS011;16320;53.954;9.506;2023-05-10T07:50:27;9.52;;;5.03;;
29314;SDS011;16320;53.954;9.506;2023-05-10T07:53:31;6.70;;;4.53;;
29314;SDS011;16320;53.954;9.506;2023-05-10T07:56:35;8.32;;;5.00;;
29314;SDS011;16320;53.954;9.506;2023-05-10T07:59:40;6.07;;;4.75;;
29314;SDS011;16320;53.954;9.506;2023-05-10T08:02:45;9.13;;;5.38;;
29314;SDS011;16320;53.954;9.506;2023-05-10T08:05:50;12.23;;;5.60;;
29314;SDS011;16320;53.954;9.506;2023-05-10T08:08:55;11.85;;;4.80;;
29314;SDS011;16320;53.954;9.506;2023-05-10T08:12:00;9.25;;;5.03;;
29314;SDS011;16320;53.954;9.506;2023-05-10T08:15:04;8.07;;;4.68;;
29314;SDS011;16320;53.954;9.506;2023-05-10T08:18:10;15.00;;;5.43;;
29314;SDS011;16320;53.954;9.506;2023-05-10T08:21:15;8.60;;;4.78;;
29314;SDS011;16320;53.954;9.506;2023-05-10T08:24:20;13.73;;;5.10;;
29314;SDS011;16320;53.954;9.506;2023-05-10T08:27:25;7.95;;;5.28;;
29314;SDS011;16320;53.954;9.506;2023-05-10T08:30:29;6.20;;;4.78;;
29314;SDS011;16320;53.954;9.506;2023-05-10T08:33:33;6.05;;;4.80;;
29314;SDS011;16320;53.954;9.506;2023-05-10T08:36:37;7.00;;;4.95;;
29314;SDS011;16320;53.954;9.506;2023-05-10T08:39:42;12.20;;;5.82;;
29314;SDS011;16320;53.954;9.506;2023-05-10T08:46:02;8.10;;;5.28;;
29314;SDS011;16320;53.954;9.506;2023-05-10T08:49:13;8.63;;;6.00;;
29314;SDS011;16320;53.954;9.506;2023-05-10T08:52:21;12.25;;;6.25;;
29314;SDS011;16320;53.954;9.506;2023-05-10T08:55:32;12.35;;;6.05;;
29314;SDS011;16320;53.954;9.506;2023-05-10T08:58:43;15.10;;;5.50;;
29314;SDS011;16320;53.954;9.506;2023-05-10T09:01:55;12.30;;;6.88;;
29314;SDS011;16320;53.954;9.506;2023-05-10T09:05:04;11.15;;;6.88;;
29314;SDS011;16320;53.954;9.506;2023-05-10T09:08:09;11.32;;;7.13;;
29314;SDS011;16320;53.954;9.506;2023-05-10T09:11:15;8.65;;;6.65;;
29314;SDS011;16320;53.954;9.506;2023-05-10T09:14:21;11.82;;;6.88;;
29314;SDS011;16320;53.954;9.506;2023-05-10T09:17:28;10.40;;;7.88;;
29314;SDS011;16320;53.954;9.506;2023-05-10T09:20:34;11.68;;;7.78;;
29314;SDS011;16320;53.954;9.506;2023-05-10T09:23:42;12.85;;;7.70;;
29314;SDS011;16320;53.954;9.506;2023-05-10T09:26:51;8.43;;;7.53;;
29314;SDS011;16320;53.954;9.506;2023-05-10T09:29:55;11.73;;;7.93;;
29314;SDS011;16320;53.954;9.506;2023-05-10T09:33:01;17.45;;;8.68;;
29314;SDS011;16320;53.954;9.506;2023-05-10T09:36:06;9.85;;;8.10;;
29314;SDS011;16320;53.954;9.506;2023-05-10T09:39:12;11.60;;;8.35;;
29314;SDS011;16320;53.954;9.506;2023-05-10T09:42:17;9.48;;;8.48;;
29314;SDS011;16320;53.954;9.506;2023-05-10T09:45:22;12.40;;;9.27;;
29314;SDS011;16320;53.954;9.506;2023-05-10T09:48:30;12.13;;;9.40;;
29314;SDS011;16320;53.954;9.506;2023-05-10T09:51:35;11.30;;;8.57;;
29314;SDS011;16320;53.954;9.506;2023-05-10T09:54:44;13.18;;;8.35;;
29314;SDS011;16320;53.954;9.506;2023-05-10T09:58:00;9.63;;;8.30;;
29314;SDS011;16320;53.954;9.506;2023-05-10T10:01:10;12.88;;;8.63;;
29314;SDS011;16320;53.954;9.506;2023-05-10T10:04:19;10.90;;;8.55;;
29314;SDS011;16320;53.954;9.506;2023-05-10T10:07:25;15.15;;;9.20;;
29314;SDS011;16320;53.954;9.506;2023-05-10T10:10:32;10.90;;;8.35;;
29314;SDS011;16320;53.954;9.506;2023-05-10T10:13:37;11.25;;;9.57;;
29314;SDS011;16320;53.954;9.506;2023-05-10T10:16:41;15.15;;;10.18;;
29314;SDS011;16320;53.954;9.506;2023-05-10T10:20:06;11.30;;;10.10;;
29314;SDS011;16320;53.954;9.506;2023-05-10T10:23:14;16.50;;;10.85;;
29314;SDS011;16320;53.954;9.506;2023-05-10T10:26:20;15.88;;;11.70;;
29314;SDS011;16320;53.954;9.506;2023-05-10T10:29:26;14.80;;;12.68;;
29314;SDS011;16320;53.954;9.506;2023-05-10T10:36:42;18.50;;;14.38;;
29314;SDS011;16320;53.954;9.506;2023-05-10T10:39:50;19.77;;;15.10;;
29314;SDS011;16320;53.954;9.506;2023-05-10T10:42:56;20.23;;;16.08;;
29314;SDS011;16320;53.954;9.506;2023-05-10T10:49:16;22.80;;;19.05;;
29314;SDS011;16320;53.954;9.506;2023-05-10T10:52:31;23.67;;;19.13;;
29314;SDS011;16320;53.954;9.506;2023-05-10T10:55:47;25.25;;;18.58;;
29314;SDS011;16320;53.954;9.506;2023-05-10T10:58:52;25.38;;;19.00;;
29314;SDS011;16320;53.954;9.506;2023-05-10T11:01:57;22.35;;;17.70;;
29314;SDS011;16320;53.954;9.506;2023-05-10T11:08:32;24.33;;;19.30;;
29314;SDS011;16320;53.954;9.506;2023-05-10T11:11:51;26.27;;;20.08;;
29314;SDS011;16320;53.954;9.506;2023-05-10T11:15:02;23.75;;;18.42;;
29314;SDS011;16320;53.954;9.506;2023-05-10T11:21:44;27.58;;;19.77;;
29314;SDS011;16320;53.954;9.506;2023-05-10T11:24:56;26.63;;;20.02;;
29314;SDS011;16320;53.954;9.506;2023-05-10T11:28:02;24.55;;;20.10;;
29314;SDS011;16320;53.954;9.506;2023-05-10T11:31:09;26.63;;;20.35;;
29314;SDS011;16320;53.954;9.506;2023-05-10T11:34:23;27.25;;;20.02;;
29314;SDS011;16320;53.954;9.506;2023-05-10T11:37:39;25.23;;;19.75;;
29314;SDS011;16320;53.954;9.506;2023-05-10T11:40:47;23.35;;;19.08;;
29314;SDS011;16320;53.954;9.506;2023-05-10T11:43:55;23.27;;;19.08;;
29314;SDS011;16320;53.954;9.506;2023-05-10T11:47:01;25.45;;;20.73;;
29314;SDS011;16320;53.954;9.506;2023-05-10T11:50:06;23.23;;;19.15;;
29314;SDS011;16320;53.954;9.506;2023-05-10T11:53:11;25.50;;;20.33;;
29314;SDS011;16320;53.954;9.506;2023-05-10T11:56:16;27.30;;;20.73;;
29314;SDS011;16320;53.954;9.506;2023-05-10T11:59:21;31.27;;;21.70;;
29314;SDS011;16320;53.954;9.506;2023-05-10T12:02:25;28.05;;;21.98;;
29314;SDS011;16320;53.954;9.506;2023-05-10T12:05:33;28.63;;;22.35;;
29314;SDS011;16320;53.954;9.506;2023-05-10T12:08:43;26.90;;;22.00;;
29314;SDS011;16320;53.954;9.506;2023-05-10T12:11:49;24.38;;;21.23;;
29314;SDS011;16320;53.954;9.506;2023-05-10T12:15:01;30.65;;;21.10;;
29314;SDS011;16320;53.954;9.506;2023-05-10T12:18:08;30.52;;;22.27;;
29314;SDS011;16320;53.954;9.506;2023-05-10T12:21:14;29.65;;;21.50;;
29314;SDS011;16320;53.954;9.506;2023-05-10T12:24:19;28.80;;;20.85;;
29314;SDS011;16320;53.954;9.506;2023-05-10T12:27:24;29.98;;;21.42;;
29314;SDS011;16320;53.954;9.506;2023-05-10T12:30:35;23.33;;;20.00;;
29314;SDS011;16320;53.954;9.506;2023-05-10T12:33:41;22.10;;;18.90;;
29314;SDS011;16320;53.954;9.506;2023-05-10T12:36:49;25.92;;;19.60;;
29314;SDS011;16320;53.954;9.506;2023-05-10T12:39:58;22.25;;;18.80;;
29314;SDS011;16320;53.954;9.506;2023-05-10T12:43:05;24.20;;;17.92;;
29314;SDS011;16320;53.954;9.506;2023-05-10T12:46:13;25.25;;;19.42;;
29314;SDS011;16320;53.954;9.506;2023-05-10T12:49:21;22.42;;;18.08;;
29314;SDS011;16320;53.954;9.506;2023-05-10T12:58:34;21.10;;;14.77;;
29314;SDS011;16320;53.954;9.506;2023-05-10T13:01:39;18.55;;;15.13;;
29314;SDS011;16320;53.954;9.506;2023-05-10T13:04:44;20.00;;;16.02;;
29314;SDS011;16320;53.954;9.506;2023-05-10T13:07:53;17.60;;;14.43;;
29314;SDS011;16320;53.954;9.506;2023-05-10T13:10:57;17.30;;;14.57;;
29314;SDS011;16320;53.954;9.506;2023-05-10T13:14:01;17.27;;;15.25;;
29314;SDS011;16320;53.954;9.506;2023-05-10T13:17:07;18.85;;;15.65;;
29314;SDS011;16320;53.954;9.506;2023-05-10T13:20:12;19.65;;;14.95;;
29314;SDS011;16320;53.954;9.506;2023-05-10T13:23:17;18.55;;;16.05;;
29314;SDS011;16320;53.954;9.506;2023-05-10T13:26:21;15.68;;;13.77;;
29314;SDS011;16320;53.954;9.506;2023-05-10T13:29:25;17.30;;;14.60;;
29314;SDS011;16320;53.954;9.506;2023-05-10T13:32:30;19.00;;;15.43;;
29314;SDS011;16320;53.954;9.506;2023-05-10T13:35:34;17.45;;;13.75;;
29314;SDS011;16320;53.954;9.506;2023-05-10T13:55:07;16.25;;;13.68;;
29314;SDS011;16320;53.954;9.506;2023-05-10T13:58:23;17.00;;;15.05;;
29314;SDS011;16320;53.954;9.506;2023-05-10T14:01:49;18.85;;;16.58;;
29314;SDS011;16320;53.954;9.506;2023-05-10T14:05:06;18.17;;;16.00;;
29314;SDS011;16320;53.954;9.506;2023-05-10T14:08:17;19.05;;;16.17;;
29314;SDS011;16320;53.954;9.506;2023-05-10T14:11:21;21.48;;;17.30;;
29314;SDS011;16320;53.954;9.506;2023-05-10T14:14:35;19.33;;;17.08;;
29314;SDS011;16320;53.954;9.506;2023-05-10T14:17:48;24.83;;;19.30;;
29314;SDS011;16320;53.954;9.506;2023-05-10T14:20:55;21.45;;;18.20;;
29314;SDS011;16320;53.954;9.506;2023-05-10T14:24:10;22.25;;;18.05;;
29314;SDS011;16320;53.954;9.506;2023-05-10T14:27:15;21.67;;;18.23;;
29314;SDS011;16320;53.954;9.506;2023-05-10T14:30:23;22.30;;;18.05;;
29314;SDS011;16320;53.954;9.506;2023-05-10T14:33:36;21.15;;;16.52;;
29314;SDS011;16320;53.954;9.506;2023-05-10T14:36:44;23.48;;;18.85;;
29314;SDS011;16320;53.954;9.506;2023-05-10T14:39:58;21.15;;;18.88;;
29314;SDS011;16320;53.954;9.506;2023-05-10T14:43:10;22.45;;;19.52;;
29314;SDS011;16320;53.954;9.506;2023-05-10T14:46:17;20.73;;;18.52;;
29314;SDS011;16320;53.954;9.506;2023-05-10T14:49:25;22.48;;;19.38;;
29314;SDS011;16320;53.954;9.506;2023-05-10T14:52:30;22.55;;;19.60;;
29314;SDS011;16320;53.954;9.506;2023-05-10T14:55:37;20.58;;;17.65;;
29314;SDS011;16320;53.954;9.506;2023-05-10T14:58:41;19.58;;;17.05;;
29314;SDS011;16320;53.954;9.506;2023-05-10T15:01:47;22.00;;;18.13;;
29314;SDS011;16320;53.954;9.506;2023-05-10T15:04:52;19.50;;;15.50;;
29314;SDS011;16320;53.954;9.506;2023-05-10T15:07:57;18.60;;;16.35;;
29314;SDS011;16320;53.954;9.506;2023-05-10T15:11:01;16.67;;;14.32;;
29314;SDS011;16320;53.954;9.506;2023-05-10T15:14:06;17.45;;;15.57;;
29314;SDS011;16320;53.954;9.506;2023-05-10T15:17:10;18.95;;;16.90;;
29314;SDS011;16320;53.954;9.506;2023-05-10T15:20:15;21.42;;;17.60;;
29314;SDS011;16320;53.954;9.506;2023-05-10T15:23:19;17.90;;;15.90;;
29314;SDS011;16320;53.954;9.506;2023-05-10T15:26:24;17.60;;;15.70;;
29314;SDS011;16320;53.954;9.506;2023-05-10T15:29:29;17.40;;;14.63;;
29314;SDS011;16320;53.954;9.506;2023-05-10T15:32:35;20.95;;;17.92;;
29314;SDS011;16320;53.954;9.506;2023-05-10T15:35:39;18.08;;;16.17;;
29314;SDS011;16320;53.954;9.506;2023-05-10T15:38:44;17.95;;;15.85;;
29314;SDS011;16320;53.954;9.506;2023-05-10T15:41:48;19.10;;;16.73;;
29314;SDS011;16320;53.954;9.506;2023-05-10T15:44:53;20.95;;;18.60;;
29314;SDS011;16320;53.954;9.506;2023-05-10T15:47:58;22.63;;;19.55;;
29314;SDS011;16320;53.954;9.506;2023-05-10T15:51:05;21.17;;;18.50;;
29314;SDS011;16320;53.954;9.506;2023-05-10T15:54:09;21.33;;;18.85;;
29314;SDS011;16320;53.954;9.506;2023-05-10T15:57:13;24.52;;;19.58;;
29314;SDS011;16320;53.954;9.506;2023-05-10T16:00:18;24.92;;;20.58;;
29314;SDS011;16320;53.954;9.506;2023-05-10T16:03:23;25.38;;;21.08;;
29314;SDS011;16320;53.954;9.506;2023-05-10T16:06:27;24.52;;;20.77;;
29314;SDS011;16320;53.954;9.506;2023-05-10T16:09:31;24.58;;;20.02;;
29314;SDS011;16320;53.954;9.506;2023-05-10T16:12:36;21.55;;;18.65;;
29314;SDS011;16320;53.954;9.506;2023-05-10T16:15:42;32.45;;;24.80;;
29314;SDS011;16320;53.954;9.506;2023-05-10T16:18:46;32.63;;;24.92;;
29314;SDS011;16320;53.954;9.506;2023-05-10T16:21:51;34.92;;;25.65;;
29314;SDS011;16320;53.954;9.506;2023-05-10T16:24:56;37.20;;;25.58;;
29314;SDS011;16320;53.954;9.506;2023-05-10T16:28:02;31.80;;;25.63;;
29314;SDS011;16320;53.954;9.506;2023-05-10T16:31:06;32.13;;;24.67;;
29314;SDS011;16320;53.954;9.506;2023-05-10T16:34:11;33.70;;;24.48;;
29314;SDS011;16320;53.954;9.506;2023-05-10T16:40:57;31.38;;;22.17;;
29314;SDS011;16320;53.954;9.506;2023-05-10T16:44:27;28.88;;;21.98;;
29314;SDS011;16320;53.954;9.506;2023-05-10T16:47:43;29.30;;;21.75;;
29314;SDS011;16320;53.954;9.506;2023-05-10T16:51:28;24.42;;;18.10;;
29314;SDS011;16320;53.954;9.506;2023-05-10T16:55:02;30.45;;;17.95;;
29314;SDS011;16320;53.954;9.506;2023-05-10T16:58:38;22.63;;;16.60;;
29314;SDS011;16320;53.954;9.506;2023-05-10T17:02:02;26.40;;;17.90;;
29314;SDS011;16320;53.954;9.506;2023-05-10T17:05:45;30.52;;;20.60;;
29314;SDS011;16320;53.954;9.506;2023-05-10T17:13:55;41.90;;;20.48;;
29314;SDS011;16320;53.954;9.506;2023-05-10T17:17:20;44.53;;;20.35;;
29314;SDS011;16320;53.954;9.506;2023-05-10T17:25:21;43.13;;;17.60;;
29314;SDS011;16320;53.954;9.506;2023-05-10T17:33:22;53.95;;;18.30;;
29314;SDS011;16320;53.954;9.506;2023-05-10T17:41:58;46.03;;;20.40;;
29314;SDS011;16320;53.954;9.506;2023-05-10T17:46:49;51.00;;;21.95;;
29314;SDS011;16320;53.954;9.506;2023-05-10T17:50:30;55.50;;;21.27;;
29314;SDS011;16320;53.954;9.506;2023-05-10T17:53:40;51.20;;;24.08;;
29314;SDS011;16320;53.954;9.506;2023-05-10T17:56:48;60.03;;;30.35;;
29314;SDS011;16320;53.954;9.506;2023-05-10T18:00:05;60.67;;;26.90;;
29314;SDS011;16320;53.954;9.506;2023-05-10T18:03:22;50.03;;;21.08;;
29314;SDS011;16320;53.954;9.506;2023-05-10T18:06:26;38.67;;;18.05;;
29314;SDS011;16320;53.954;9.506;2023-05-10T18:09:31;38.15;;;17.38;;
29314;SDS011;16320;53.954;9.506;2023-05-10T18:12:36;35.17;;;16.13;;
29314;SDS011;16320;53.954;9.506;2023-05-10T18:15:40;33.10;;;16.00;;
29314;SDS011;16320;53.954;9.506;2023-05-10T18:18:45;26.02;;;14.13;;
29314;SDS011;16320;53.954;9.506;2023-05-10T18:24:56;28.85;;;14.25;;
29314;SDS011;16320;53.954;9.506;2023-05-10T18:30:59;26.90;;;14.55;;
29314;SDS011;16320;53.954;9.506;2023-05-10T18:34:45;26.95;;;14.80;;
29314;SDS011;16320;53.954;9.506;2023-05-10T18:47:57;27.90;;;14.52;;
29314;SDS011;16320;53.954;9.506;2023-05-10T18:52:13;27.17;;;13.00;;
29314;SDS011;16320;53.954;9.506;2023-05-10T18:56:45;28.52;;;14.63;;
29314;SDS011;16320;53.954;9.506;2023-05-10T19:00:35;33.97;;;15.20;;
29314;SDS011;16320;53.954;9.506;2023-05-10T19:03:55;30.77;;;16.77;;
29314;SDS011;16320;53.954;9.506;2023-05-10T19:07:42;32.50;;;16.33;;
29314;SDS011;16320;53.954;9.506;2023-05-10T19:15:32;43.75;;;19.75;;
29314;SDS011;16320;53.954;9.506;2023-05-10T19:19:28;42.33;;;20.92;;
29314;SDS011;16320;53.954;9.506;2023-05-10T19:22:51;43.55;;;20.73;;
29314;SDS011;16320;53.954;9.506;2023-05-10T19:26:15;45.47;;;23.05;;
29314;SDS011;16320;53.954;9.506;2023-05-10T19:30:06;50.42;;;24.92;;
29314;SDS011;16320;53.954;9.506;2023-05-10T19:34:03;56.80;;;26.98;;
29314;SDS011;16320;53.954;9.506;2023-05-10T19:42:33;66.65;;;30.30;;
29314;SDS011;16320;53.954;9.506;2023-05-10T20:01:44;77.45;;;34.15;;
29314;SDS011;16320;53.954;9.506;2023-05-10T20:05:04;83.75;;;34.95;;
29314;SDS011;16320;53.954;9.506;2023-05-10T20:08:31;77.78;;;33.22;;
29314;SDS011;16320;53.954;9.506;2023-05-10T20:11:52;88.57;;;33.15;;
29314;SDS011;16320;53.954;9.506;2023-05-10T20:14:59;96.78;;;33.47;;
29314;SDS011;16320;53.954;9.506;2023-05-10T20:18:04;77.07;;;32.20;;
29314;SDS011;16320;53.954;9.506;2023-05-10T20:21:10;70.30;;;29.95;;
29314;SDS011;16320;53.954;9.506;2023-05-10T20:24:14;87.28;;;32.63;;
29314;SDS011;16320;53.954;9.506;2023-05-10T20:27:19;83.15;;;32.15;;
29314;SDS011;16320;53.954;9.506;2023-05-10T20:30:26;90.32;;;29.75;;
29314;SDS011;16320;53.954;9.506;2023-05-10T20:33:31;88.32;;;29.42;;
29314;SDS011;16320;53.954;9.506;2023-05-10T20:36:39;92.60;;;30.27;;
29314;SDS011;16320;53.954;9.506;2023-05-10T20:39:45;85.95;;;27.77;;
29314;SDS011;16320;53.954;9.506;2023-05-10T20:42:53;93.28;;;27.23;;
29314;SDS011;16320;53.954;9.506;2023-05-10T20:45:57;75.88;;;25.95;;
29314;SDS011;16320;53.954;9.506;2023-05-10T20:49:08;88.30;;;26.30;;
29314;SDS011;16320;53.954;9.506;2023-05-10T20:52:12;69.45;;;25.88;;
29314;SDS011;16320;53.954;9.506;2023-05-10T20:55:17;71.95;;;24.13;;
29314;SDS011;16320;53.954;9.506;2023-05-10T20:58:22;81.13;;;27.40;;
29314;SDS011;16320;53.954;9.506;2023-05-10T21:01:26;85.10;;;28.63;;
29314;SDS011;16320;53.954;9.506;2023-05-10T21:04:30;66.03;;;26.05;;
29314;SDS011;16320;53.954;9.506;2023-05-10T21:07:35;75.32;;;28.00;;
29314;SDS011;16320;53.954;9.506;2023-05-10T21:10:40;79.07;;;27.63;;
29314;SDS011;16320;53.954;9.506;2023-05-10T21:13:44;77.18;;;27.67;;
29314;SDS011;16320;53.954;9.506;2023-05-10T21:16:49;77.75;;;27.98;;
29314;SDS011;16320;53.954;9.506;2023-05-10T21:19:53;64.53;;;26.95;;
29314;SDS011;16320;53.954;9.506;2023-05-10T21:22:58;69.65;;;26.52;;
29314;SDS011;16320;53.954;9.506;2023-05-10T21:26:03;76.78;;;24.95;;
29314;SDS011;16320;53.954;9.506;2023-05-10T21:29:08;67.55;;;22.95;;